Time;durP1;ratioP1;P1;durP2;ratioP2;P2;SDS_P1;SDS_P2;PMS_P1;PMS_P2;Temp;Humidity;BMP_temperature;BMP_pressure;BME280_temperature;BME280_humidity;BME280_pressure;Samples;Min_cycle;Max_cycle;Signal;HPM_P1;HPM_P2
2022/03/14 00:00:31;;;;;;;1.42;1.10;;;13.00;90.50;;;;;;5068175;28;20024;-41
2022/03/14 00:02:56;;;;;;;1.65;1.50;;;13.00;90.70;;;;;;5079645;28;20468;-42
2022/03/14 00:05:30;;;;;;;1.55;1.45;;;13.00;90.90;;;;;;5068507;28;20078;-42
2022/03/14 00:07:56;;;;;;;1.40;1.30;;;13.00;90.60;;;;;;5080156;28;20027;-42
2022/03/14 00:10:21;;;;;;;2.38;1.25;;;13.00;90.70;;;;;;5067515;28;20016;-40
2022/03/14 00:12:51;;;;;;;1.33;1.15;;;12.90;90.70;;;;;;5078770;28;20392;-41
2022/03/14 00:15:17;;;;;;;1.10;1.00;;;12.90;90.70;;;;;;5068482;28;20398;-41
2022/03/14 00:17:45;;;;;;;1.20;1.10;;;13.00;90.70;;;;;;5076678;28;20024;-42
2022/03/14 00:20:13;;;;;;;1.30;1.20;;;13.00;90.70;;;;;;5071212;28;20056;-39
2022/03/14 00:22:39;;;;;;;1.20;1.10;;;13.00;90.70;;;;;;5074370;28;20024;-41
2022/03/14 00:25:08;;;;;;;1.30;1.20;;;13.00;90.70;;;;;;5072876;28;20024;-41
2022/03/14 00:27:37;;;;;;;1.20;1.10;;;13.00;90.70;;;;;;5073295;28;20032;-41
2022/03/14 00:30:05;;;;;;;1.02;1.02;;;13.00;90.70;;;;;;5073418;28;20033;-41
2022/03/14 00:32:30;;;;;;;1.63;1.00;;;13.00;90.70;;;;;;5071121;28;20016;-39
2022/03/14 00:34:57;;;;;;;1.20;1.10;;;13.00;90.70;;;;;;5076249;28;20486;-36
2022/03/14 00:37:26;;;;;;;1.05;0.98;;;13.00;90.70;;;;;;5068765;28;20016;-37
2022/03/14 00:39:53;;;;;;;1.75;1.17;;;13.00;90.80;;;;;;5076301;28;20116;-40
2022/03/14 00:42:21;;;;;;;1.25;1.15;;;13.00;90.90;;;;;;5086043;28;20028;-36
2022/03/14 00:44:47;;;;;;;1.30;1.20;;;12.90;90.90;;;;;;5075508;28;20027;-41
2022/03/14 00:47:12;;;;;;;1.30;1.20;;;12.90;90.90;;;;;;5086585;28;20497;-40
2022/03/14 00:49:38;;;;;;;1.10;1.00;;;12.90;91.00;;;;;;5075899;28;20031;-40
2022/03/14 00:52:04;;;;;;;1.67;1.10;;;12.90;91.00;;;;;;5087077;28;20352;-40
2022/03/14 00:54:29;;;;;;;1.27;1.17;;;12.90;91.10;;;;;;5074747;28;20035;-41
2022/03/14 00:56:55;;;;;;;1.63;1.00;;;12.80;91.10;;;;;;5086833;28;20059;-40
2022/03/14 00:59:21;;;;;;;1.25;1.15;;;12.80;91.20;;;;;;5074577;28;20016;-42
2022/03/14 01:01:46;;;;;;;1.23;1.13;;;12.80;91.30;;;;;;5086246;28;20039;-41
2022/03/14 01:04:12;;;;;;;1.10;1.00;;;12.70;91.30;;;;;;5078350;28;20017;-40
2022/03/14 01:06:37;;;;;;;1.10;0.90;;;12.70;91.40;;;;;;5083236;28;20097;-41
2022/03/14 01:09:03;;;;;;;1.23;1.13;;;12.70;91.40;;;;;;5080354;28;20506;-42
2022/03/14 01:11:29;;;;;;;0.90;0.90;;;12.70;91.50;;;;;;5081017;28;20016;-38
2022/03/14 01:13:55;;;;;;;1.17;1.08;;;12.70;91.60;;;;;;5082110;28;20463;-40
2022/03/14 01:16:20;;;;;;;1.33;1.23;;;12.70;91.60;;;;;;5078427;28;20047;-40
2022/03/14 01:18:46;;;;;;;1.20;1.10;;;12.60;91.70;;;;;;5084854;28;20028;-41
2022/03/14 01:21:12;;;;;;;1.20;1.10;;;12.70;91.80;;;;;;5076179;28;20479;-40
2022/03/14 01:23:37;;;;;;;1.20;1.10;;;12.60;91.80;;;;;;5085192;28;20031;-41
2022/03/14 01:26:03;;;;;;;1.33;1.10;;;12.60;91.80;;;;;;5074988;28;20423;-41
2022/03/14 01:28:28;;;;;;;1.50;1.40;;;12.60;92.00;;;;;;5087032;28;20108;-42
2022/03/14 01:30:54;;;;;;;1.40;1.30;;;12.60;92.30;;;;;;5073270;28;20027;-40
2022/03/14 01:33:22;;;;;;;1.45;1.35;;;12.50;92.30;;;;;;5086247;28;20032;-42
2022/03/14 01:35:47;;;;;;;1.10;1.00;;;12.50;92.30;;;;;;5073140;28;20037;-41
2022/03/14 01:38:13;;;;;;;1.13;1.02;;;12.50;92.30;;;;;;5086834;28;20020;-42
2022/03/14 01:40:38;;;;;;;1.13;1.08;;;12.40;92.30;;;;;;5074811;28;20025;-40
2022/03/14 01:43:04;;;;;;;1.63;1.20;;;12.40;92.30;;;;;;5084994;28;20040;-41
2022/03/14 01:45:29;;;;;;;1.30;1.20;;;12.40;92.50;;;;;;5077884;28;20480;-41
2022/03/14 01:47:55;;;;;;;1.38;1.23;;;12.40;92.60;;;;;;5080664;28;20024;-43
2022/03/14 01:50:22;;;;;;;1.85;1.33;;;12.30;92.70;;;;;;5080792;28;20036;-41
2022/03/14 01:52:47;;;;;;;1.40;1.30;;;12.30;92.70;;;;;;5078784;28;20481;-42
2022/03/14 01:55:13;;;;;;;1.83;1.58;;;12.30;92.70;;;;;;5082006;28;20116;-42
2022/03/14 01:57:40;;;;;;;1.48;1.38;;;12.30;92.80;;;;;;5077137;28;20100;-41
2022/03/14 02:00:08;;;;;;;1.52;1.40;;;12.30;92.80;;;;;;5084860;28;20028;-41
2022/03/14 02:02:34;;;;;;;1.35;1.25;;;12.30;92.80;;;;;;5073283;28;20043;-41
2022/03/14 02:05:00;;;;;;;1.48;1.38;;;12.30;92.80;;;;;;5084532;28;20060;-41
2022/03/14 02:07:26;;;;;;;1.60;1.50;;;12.30;92.90;;;;;;5074855;28;20116;-42
2022/03/14 02:09:51;;;;;;;1.70;1.60;;;12.30;93.00;;;;;;5084332;28;20035;-42
2022/03/14 02:12:18;;;;;;;1.30;1.20;;;12.30;93.00;;;;;;5073300;28;20062;-41
2022/03/14 02:14:44;;;;;;;1.55;1.42;;;12.30;93.00;;;;;;5085482;28;20698;-41
2022/03/14 02:17:11;;;;;;;1.80;1.65;;;12.30;93.10;;;;;;5072484;28;20521;-40
2022/03/14 02:19:38;;;;;;;1.98;1.77;;;12.30;93.30;;;;;;5085986;28;20028;-41
2022/03/14 02:22:05;;;;;;;3.17;1.92;;;12.30;93.20;;;;;;5073609;28;20036;-41
2022/03/14 02:24:31;;;;;;;2.72;1.70;;;12.30;93.30;;;;;;5084821;28;20055;-43
2022/03/14 02:26:57;;;;;;;2.00;1.80;;;12.30;93.30;;;;;;5076660;28;20058;-40
2022/03/14 02:29:24;;;;;;;3.20;1.80;;;12.30;93.30;;;;;;5081505;28;20182;-40
2022/03/14 02:31:53;;;;;;;1.85;1.60;;;12.30;93.30;;;;;;5078688;28;20032;-42
2022/03/14 02:34:19;;;;;;;1.95;1.77;;;12.30;93.30;;;;;;5080549;28;20032;-38
2022/03/14 02:36:45;;;;;;;1.80;1.60;;;12.30;93.40;;;;;;5080440;28;20025;-41
2022/03/14 02:39:10;;;;;;;1.92;1.83;;;12.30;93.40;;;;;;5077233;28;20414;-42
2022/03/14 02:41:36;;;;;;;2.22;1.83;;;12.30;93.40;;;;;;5083510;28;20054;-40
2022/03/14 02:44:08;;;;;;;1.83;1.70;;;12.30;93.40;;;;;;5074038;28;20520;-43
2022/03/14 02:46:38;;;;;;;2.03;1.58;;;12.30;93.40;;;;;;5084092;28;20048;-41
2022/03/14 02:49:09;;;;;;;2.00;1.80;;;12.40;93.40;;;;;;5077787;28;20039;-38
2022/03/14 02:51:38;;;;;;;2.08;1.88;;;12.30;93.40;;;;;;5083274;28;20054;-41
2022/03/14 02:54:05;;;;;;;1.48;1.38;;;12.30;93.40;;;;;;5074109;28;20483;-41
2022/03/14 02:56:32;;;;;;;2.33;2.03;;;12.30;93.50;;;;;;5084616;28;20056;-42
2022/03/14 02:58:57;;;;;;;2.10;1.90;;;12.30;93.70;;;;;;5072280;28;20429;-41
2022/03/14 03:01:23;;;;;;;2.20;2.00;;;12.20;93.70;;;;;;5085702;28;20515;-42
2022/03/14 03:03:49;;;;;;;2.10;1.90;;;12.30;93.70;;;;;;5072032;28;20140;-42
2022/03/14 03:06:22;;;;;;;2.25;2.00;;;12.20;93.70;;;;;;5085125;28;20028;-42
2022/03/14 03:08:52;;;;;;;2.03;1.85;;;12.20;93.90;;;;;;5072153;28;20072;-41
2022/03/14 03:11:20;;;;;;;2.53;2.33;;;12.20;94.10;;;;;;5084810;28;20028;-41
2022/03/14 03:13:47;;;;;;;2.20;2.00;;;12.10;94.30;;;;;;5073174;28;20036;-40
2022/03/14 03:16:14;;;;;;;2.28;2.08;;;12.00;94.50;;;;;;5083881;28;20475;-43
2022/03/14 03:18:40;;;;;;;2.30;2.10;;;12.00;94.60;;;;;;5075369;28;20111;-41
2022/03/14 03:21:05;;;;;;;2.17;1.98;;;11.90;94.70;;;;;;5083784;28;20833;-40
2022/03/14 03:23:34;;;;;;;2.20;2.00;;;11.90;94.80;;;;;;5083099;28;20127;-44
2022/03/14 03:25:59;;;;;;;2.40;2.20;;;11.90;94.90;;;;;;5082032;28;20064;-42
2022/03/14 03:28:25;;;;;;;1.83;1.63;;;11.80;95.00;;;;;;5085278;28;20103;-41
2022/03/14 03:30:51;;;;;;;1.95;1.83;;;11.80;95.00;;;;;;5080088;28;20387;-41
2022/03/14 03:33:17;;;;;;;1.70;1.60;;;11.80;95.10;;;;;;5086464;28;20472;-42
2022/03/14 03:35:43;;;;;;;2.00;1.80;;;11.80;95.10;;;;;;5077140;28;20047;-42
2022/03/14 03:38:08;;;;;;;2.50;2.30;;;11.80;95.20;;;;;;5087155;28;20074;-39
2022/03/14 03:40:34;;;;;;;3.15;1.98;;;11.80;95.50;;;;;;5076090;28;20040;-41
2022/03/14 03:42:59;;;;;;;2.30;2.10;;;11.80;95.50;;;;;;5088575;28;20020;-41
2022/03/14 03:45:26;;;;;;;2.47;2.10;;;11.80;95.60;;;;;;5075914;28;20058;-41
2022/03/14 03:47:52;;;;;;;2.33;2.13;;;11.80;95.60;;;;;;5085657;28;20020;-41
2022/03/14 03:50:18;;;;;;;2.70;2.13;;;11.80;95.60;;;;;;5081170;28;20031;-40
2022/03/14 03:52:43;;;;;;;2.10;1.90;;;11.80;95.70;;;;;;5067940;28;20021;-41
2022/03/14 03:55:09;;;;;;;1.70;1.60;;;11.80;95.80;;;;;;5078876;28;20035;-40
2022/03/14 03:57:35;;;;;;;2.20;2.00;;;11.80;95.80;;;;;;5070097;28;20031;-42
2022/03/14 04:00:03;;;;;;;2.60;2.40;;;11.70;96.00;;;;;;5076328;28;20503;-42
2022/03/14 04:02:35;;;;;;;2.50;2.30;;;11.70;96.20;;;;;;5071685;28;20066;-39
2022/03/14 04:05:00;;;;;;;2.20;2.00;;;11.70;96.20;;;;;;5075047;28;20385;-40
2022/03/14 04:07:26;;;;;;;2.33;2.13;;;11.70;96.30;;;;;;5074083;28;20033;-41
2022/03/14 04:09:55;;;;;;;2.55;2.22;;;11.70;96.30;;;;;;5070888;28;20016;-41
2022/03/14 04:12:23;;;;;;;2.60;2.40;;;11.70;96.30;;;;;;5075946;28;20025;-41
2022/03/14 04:14:48;;;;;;;2.65;2.45;;;11.70;96.30;;;;;;5068908;28;20044;-40
2022/03/14 04:17:14;;;;;;;2.50;2.30;;;11.70;96.40;;;;;;5078365;28;20060;-39
2022/03/14 04:19:41;;;;;;;2.63;2.42;;;11.70;96.50;;;;;;5069537;28;20081;-41
2022/03/14 04:22:07;;;;;;;2.97;2.58;;;11.70;96.50;;;;;;5078798;28;20029;-41
2022/03/14 04:24:34;;;;;;;2.67;2.47;;;11.70;96.60;;;;;;5068828;28;20028;-42
2022/03/14 04:27:00;;;;;;;2.58;2.30;;;11.70;96.70;;;;;;5079197;28;20024;-45
2022/03/14 04:29:25;;;;;;;2.22;2.03;;;11.70;96.80;;;;;;5067383;28;20028;-40
2022/03/14 04:31:51;;;;;;;3.65;2.70;;;11.60;96.80;;;;;;5079414;28;20349;-41
2022/03/14 04:34:16;;;;;;;2.90;2.63;;;11.60;96.80;;;;;;5068375;28;20097;-41
2022/03/14 04:36:42;;;;;;;2.50;2.30;;;11.70;96.80;;;;;;5078724;28;20113;-41
2022/03/14 04:39:07;;;;;;;2.53;2.33;;;11.70;96.80;;;;;;5067674;28;20059;-35
2022/03/14 04:41:37;;;;;;;2.58;2.38;;;11.70;97.00;;;;;;5077160;28;20256;-41
2022/03/14 04:44:04;;;;;;;2.50;2.13;;;11.70;96.90;;;;;;5069114;28;20020;-41
2022/03/14 04:46:29;;;;;;;2.67;2.38;;;11.70;96.90;;;;;;5075553;28;20090;-39
2022/03/14 04:48:55;;;;;;;2.80;2.60;;;11.70;97.10;;;;;;5072131;28;20032;-41
2022/03/14 04:51:21;;;;;;;2.97;2.67;;;11.60;97.30;;;;;;5071817;28;20028;-41
2022/03/14 04:53:46;;;;;;;2.90;2.70;;;11.60;97.30;;;;;;5074407;28;20149;-42
2022/03/14 04:56:12;;;;;;;3.25;2.95;;;11.50;97.70;;;;;;5069834;28;20079;-42
2022/03/14 04:58:37;;;;;;;3.20;3.00;;;11.50;97.50;;;;;;5076594;28;20345;-38
2022/03/14 05:01:03;;;;;;;3.50;3.20;;;11.40;97.70;;;;;;5068381;28;20028;-42
2022/03/14 05:03:28;;;;;;;3.88;3.47;;;11.40;98.00;;;;;;5078358;28;20020;-40
2022/03/14 05:05:54;;;;;;;2.75;2.55;;;11.30;98.50;;;;;;5066524;28;20484;-40
2022/03/14 05:08:20;;;;;;;3.10;2.90;;;11.10;98.60;;;;;;5078734;28;20020;-41
2022/03/14 05:10:46;;;;;;;3.17;2.90;;;11.00;99.10;;;;;;5066262;28;20044;-41
2022/03/14 05:13:11;;;;;;;3.42;3.13;;;10.90;99.10;;;;;;5079147;28;20555;-42
2022/03/14 05:15:37;;;;;;;3.60;3.30;;;10.70;99.30;;;;;;5066381;28;20043;-43
2022/03/14 05:18:05;;;;;;;3.60;3.30;;;10.70;99.60;;;;;;5078095;28;20031;-40
2022/03/14 05:20:31;;;;;;;3.47;3.17;;;10.60;99.90;;;;;;5067187;28;20021;-41
2022/03/14 05:22:57;;;;;;;3.60;3.30;;;10.60;99.90;;;;;;5075918;28;20379;-40
2022/03/14 05:25:23;;;;;;;3.42;3.13;;;10.50;99.90;;;;;;5068853;28;20127;-43
2022/03/14 05:27:50;;;;;;;3.58;3.28;;;10.50;99.90;;;;;;5073281;28;20024;-40
2022/03/14 05:30:16;;;;;;;4.05;3.65;;;10.50;99.90;;;;;;5071741;28;20025;-42
2022/03/14 05:32:42;;;;;;;3.95;3.65;;;10.50;99.90;;;;;;5069906;28;20027;-41
2022/03/14 05:35:11;;;;;;;3.72;3.42;;;10.50;99.90;;;;;;5074760;28;20039;-40
2022/03/14 05:37:38;;;;;;;4.32;3.88;;;10.50;99.90;;;;;;5068763;28;20519;-41
2022/03/14 05:40:04;;;;;;;3.60;3.30;;;10.50;99.90;;;;;;5075305;28;20024;-40
2022/03/14 05:42:29;;;;;;;4.32;3.92;;;10.60;99.90;;;;;;5067776;28;20111;-40
2022/03/14 05:44:55;;;;;;;5.22;4.72;;;10.50;99.90;;;;;;5076837;28;20115;-38
2022/03/14 05:47:20;;;;;;;5.07;4.68;;;10.50;99.90;;;;;;5066243;28;20127;-41
2022/03/14 05:49:46;;;;;;;5.88;5.38;;;10.50;99.90;;;;;;5077455;28;20027;-39
2022/03/14 05:52:12;;;;;;;6.68;6.07;;;10.50;99.90;;;;;;5066165;28;20116;-42
2022/03/14 05:54:38;;;;;;;7.00;6.35;;;10.50;99.90;;;;;;5077691;28;20066;-42
2022/03/14 05:57:04;;;;;;;6.18;5.57;;;10.50;99.90;;;;;;5066157;28;20388;-41
2022/03/14 05:59:29;;;;;;;8.85;7.07;;;10.50;99.90;;;;;;5078824;28;20051;-40
2022/03/14 06:01:55;;;;;;;7.00;6.40;;;10.50;99.90;;;;;;5064988;28;20635;-42
2022/03/14 06:04:21;;;;;;;7.88;6.55;;;10.50;99.90;;;;;;5076089;28;20069;-40
2022/03/14 06:06:47;;;;;;;8.55;7.65;;;10.50;99.90;;;;;;5068411;28;20063;-42
2022/03/14 06:09:13;;;;;;;8.60;7.80;;;10.50;99.90;;;;;;5072775;28;20406;-39
2022/03/14 06:11:39;;;;;;;8.60;7.80;;;10.50;99.90;;;;;;5071299;28;20025;-42
2022/03/14 06:14:05;;;;;;;8.68;7.88;;;10.50;99.90;;;;;;5070569;28;20743;-42
2022/03/14 06:16:31;;;;;;;6.85;6.28;;;10.50;99.90;;;;;;5073264;28;20032;-41
2022/03/14 06:18:56;;;;;;;7.50;6.70;;;10.50;99.90;;;;;;5068394;28;20016;-40
2022/03/14 06:21:22;;;;;;;7.55;6.85;;;10.50;99.90;;;;;;5075298;28;20036;-41
2022/03/14 06:23:47;;;;;;;8.73;7.93;;;10.50;99.90;;;;;;5066522;28;20020;-41
2022/03/14 06:26:14;;;;;;;8.80;7.95;;;10.40;99.90;;;;;;5077338;28;20078;-41
2022/03/14 06:28:40;;;;;;;7.85;7.05;;;10.40;99.90;;;;;;5065715;28;20033;-41
2022/03/14 06:31:07;;;;;;;6.75;6.10;;;10.40;99.90;;;;;;5077332;28;20077;-40
2022/03/14 06:33:33;;;;;;;6.30;5.70;;;10.40;99.90;;;;;;5065572;28;20509;-43
2022/03/14 06:35:58;;;;;;;7.25;6.55;;;10.40;99.90;;;;;;5077068;28;20040;-42
2022/03/14 06:38:24;;;;;;;6.93;5.97;;;10.40;99.90;;;;;;5065760;28;20031;-42
2022/03/14 06:40:50;;;;;;;8.73;6.88;;;10.40;99.90;;;;;;5077195;28;20471;-41
2022/03/14 06:43:19;;;;;;;7.78;6.72;;;10.50;99.90;;;;;;5065191;28;20025;-42
2022/03/14 06:45:45;;;;;;;6.82;6.22;;;10.50;99.90;;;;;;5086490;28;20055;-40
2022/03/14 06:48:12;;;;;;;7.55;6.38;;;10.50;99.90;;;;;;5087936;28;20088;-42
2022/03/14 06:50:38;;;;;;;7.10;6.40;;;10.50;99.90;;;;;;5073850;28;20064;-42
2022/03/14 06:53:04;;;;;;;7.03;6.32;;;10.50;99.90;;;;;;5079482;28;20024;-43
2022/03/14 06:55:30;;;;;;;7.65;6.85;;;10.50;99.90;;;;;;5078642;28;20044;-42
2022/03/14 06:57:56;;;;;;;6.75;6.05;;;10.50;99.90;;;;;;5076378;28;20655;-39
2022/03/14 07:00:22;;;;;;;7.30;6.70;;;10.60;99.90;;;;;;5081235;28;20055;-42
2022/03/14 07:02:48;;;;;;;7.93;7.13;;;10.60;99.90;;;;;;5085622;28;20031;-41
2022/03/14 07:05:19;;;;;;;7.60;6.90;;;10.60;99.90;;;;;;5096597;28;20032;-41
2022/03/14 07:07:48;;;;;;;8.98;8.07;;;10.50;99.90;;;;;;5075805;28;20029;-41
2022/03/14 07:10:14;;;;;;;8.13;7.32;;;10.50;99.90;;;;;;5065250;28;21243;-43
2022/03/14 07:12:48;;;;;;;9.13;8.02;;;10.60;99.90;;;;;;5075332;28;20112;-40
2022/03/14 07:15:20;;;;;;;8.52;7.72;;;10.50;99.90;;;;;;5065054;28;20064;-43
2022/03/14 07:17:45;;;;;;;8.00;7.20;;;10.60;99.90;;;;;;5074621;28;20028;-41
2022/03/14 07:20:12;;;;;;;8.55;7.50;;;10.60;99.90;;;;;;5064411;28;20384;-41
2022/03/14 07:23:00;;;;;;;8.93;8.02;;;10.70;99.90;;;;;;5076777;28;20036;-41
2022/03/14 07:25:35;;;;;;;9.68;8.68;;;10.60;99.90;;;;;;5063296;28;20031;-40
2022/03/14 07:28:03;;;;;;;9.50;8.50;;;10.60;99.90;;;;;;5073290;28;20454;-38
2022/03/14 07:30:29;;;;;;;9.77;8.80;;;10.70;99.90;;;;;;5084275;28;20024;-42
2022/03/14 07:32:54;;;;;;;10.23;8.70;;;10.70;99.90;;;;;;5070847;28;20028;-39
2022/03/14 07:35:22;;;;;;;9.70;8.70;;;10.70;99.90;;;;;;5084910;28;20067;-42
2022/03/14 07:37:48;;;;;;;11.68;8.85;;;10.80;99.90;;;;;;5071732;28;20025;-43
2022/03/14 07:40:14;;;;;;;11.55;10.43;;;10.80;99.90;;;;;;5087326;28;20026;-41
2022/03/14 07:42:46;;;;;;;11.82;9.57;;;10.70;99.90;;;;;;5079804;28;20028;-42
2022/03/14 07:45:14;;;;;;;11.93;10.33;;;10.80;99.90;;;;;;5096337;28;20031;-38
2022/03/14 07:47:40;;;;;;;12.05;10.35;;;10.80;99.90;;;;;;5086661;28;20276;-41
2022/03/14 07:50:07;;;;;;;10.73;9.48;;;10.80;99.90;;;;;;5099217;28;20126;-41
2022/03/14 07:52:34;;;;;;;11.75;10.43;;;10.80;99.90;;;;;;5089473;28;20437;-41
2022/03/14 07:55:00;;;;;;;11.55;10.40;;;10.80;99.90;;;;;;5069504;28;20059;-41
2022/03/14 07:57:26;;;;;;;12.38;10.68;;;10.80;99.90;;;;;;5068721;28;20120;-36
2022/03/14 07:59:52;;;;;;;13.88;10.98;;;10.90;99.90;;;;;;5072221;28;20031;-40
2022/03/14 08:02:17;;;;;;;12.23;10.40;;;10.90;99.90;;;;;;5065994;28;20025;-42
2022/03/14 08:04:43;;;;;;;10.90;9.80;;;11.00;99.90;;;;;;5075428;28;20028;-43
2022/03/14 08:07:09;;;;;;;12.60;11.30;;;11.00;99.90;;;;;;5066818;28;20030;-40
2022/03/14 08:09:34;;;;;;;12.43;11.13;;;11.10;99.90;;;;;;5079379;28;20039;-42
2022/03/14 08:12:03;;;;;;;13.15;10.57;;;11.10;99.90;;;;;;5067898;28;20043;-41
2022/03/14 08:14:29;;;;;;;11.65;10.45;;;11.10;99.90;;;;;;5075317;28;20585;-42
2022/03/14 08:16:54;;;;;;;13.30;11.15;;;11.10;99.90;;;;;;5087741;28;20039;-41
2022/03/14 08:19:20;;;;;;;14.38;12.60;;;11.20;99.90;;;;;;5075264;28;20064;-42
2022/03/14 08:21:46;;;;;;;15.77;14.07;;;11.20;99.90;;;;;;5087189;28;20031;-41
2022/03/14 08:24:13;;;;;;;16.05;14.35;;;11.20;99.90;;;;;;5076572;28;20460;-41
2022/03/14 08:26:38;;;;;;;13.95;12.50;;;11.20;99.90;;;;;;5087218;28;20101;-42
2022/03/14 08:29:04;;;;;;;15.35;13.75;;;11.20;99.90;;;;;;5077488;28;20017;-42
2022/03/14 08:31:32;;;;;;;13.48;12.05;;;11.20;99.90;;;;;;5085157;28;20425;-41
2022/03/14 08:33:57;;;;;;;16.35;13.20;;;11.30;99.90;;;;;;5081212;28;20095;-41
2022/03/14 08:36:23;;;;;;;18.55;14.75;;;11.20;99.90;;;;;;5081312;28;20488;-40
2022/03/14 08:38:49;;;;;;;15.40;13.65;;;11.20;99.90;;;;;;5082852;28;20038;-42
2022/03/14 08:41:16;;;;;;;16.27;14.57;;;11.30;99.90;;;;;;5079721;28;20081;-42
2022/03/14 08:43:43;;;;;;;16.63;14.48;;;11.30;99.90;;;;;;5084918;28;20020;-41
2022/03/14 08:46:09;;;;;;;14.88;13.13;;;11.30;99.90;;;;;;5077498;28;20044;-42
2022/03/14 08:48:35;;;;;;;14.63;12.93;;;11.30;99.90;;;;;;5080747;28;20020;-42
2022/03/14 08:51:00;;;;;;;15.85;13.85;;;11.30;99.90;;;;;;5078209;28;20021;-43
2022/03/14 08:53:26;;;;;;;16.15;14.43;;;11.30;99.90;;;;;;5067708;28;20034;-41
2022/03/14 08:55:52;;;;;;;19.15;16.75;;;11.40;99.90;;;;;;5078499;28;20060;-42
2022/03/14 08:58:17;;;;;;;17.35;14.95;;;11.30;99.90;;;;;;5067191;28;20024;-40
2022/03/14 09:00:43;;;;;;;16.08;14.27;;;11.40;99.90;;;;;;5079399;28;20043;-43
2022/03/14 09:03:09;;;;;;;20.48;16.00;;;11.40;99.90;;;;;;5067331;28;20031;-43
2022/03/14 09:05:34;;;;;;;14.98;13.40;;;11.40;99.90;;;;;;5078458;28;20564;-42
2022/03/14 09:08:00;;;;;;;15.35;13.55;;;11.40;99.90;;;;;;5067884;28;20627;-41
2022/03/14 09:10:26;;;;;;;15.05;13.07;;;11.40;99.90;;;;;;5076199;28;20028;-43
2022/03/14 09:12:51;;;;;;;16.25;14.55;;;11.50;99.90;;;;;;5070280;28;20028;-42
2022/03/14 09:15:17;;;;;;;17.88;14.68;;;11.40;99.90;;;;;;5073720;28;20039;-42
2022/03/14 09:17:47;;;;;;;16.67;14.50;;;11.40;99.90;;;;;;5104909;28;20035;-41
2022/03/14 09:20:15;;;;;;;17.13;13.85;;;11.40;99.90;;;;;;5093792;28;20476;-41
2022/03/14 09:22:43;;;;;;;16.25;14.13;;;11.40;99.90;;;;;;5074293;28;20028;-41
2022/03/14 09:25:09;;;;;;;17.10;15.15;;;11.50;99.90;;;;;;5081966;28;20025;-42
2022/03/14 09:27:35;;;;;;;15.05;13.48;;;11.60;99.90;;;;;;5076757;28;20045;-42
2022/03/14 09:30:00;;;;;;;18.45;15.77;;;11.60;99.90;;;;;;5068112;28;20024;-42
2022/03/14 09:32:26;;;;;;;16.63;14.82;;;11.60;99.90;;;;;;5076707;28;20020;-41
2022/03/14 09:34:51;;;;;;;20.55;16.92;;;11.70;99.90;;;;;;5065461;28;20028;-41
2022/03/14 09:37:17;;;;;;;20.90;16.85;;;11.60;99.90;;;;;;5078049;28;20036;-42
2022/03/14 09:39:42;;;;;;;18.85;16.30;;;11.60;99.90;;;;;;5065490;28;20491;-43
2022/03/14 09:42:11;;;;;;;18.95;16.92;;;11.70;99.90;;;;;;5079374;28;20044;-43
2022/03/14 09:44:42;;;;;;;19.77;17.15;;;11.80;99.90;;;;;;5066321;28;20029;-42
2022/03/14 09:47:09;;;;;;;19.05;16.52;;;11.80;99.90;;;;;;5078496;28;20484;-40
2022/03/14 09:49:35;;;;;;;21.15;17.52;;;11.80;99.90;;;;;;5066444;28;20044;-42
2022/03/14 09:52:02;;;;;;;20.33;17.58;;;11.80;99.90;;;;;;5076679;28;20031;-42
2022/03/14 09:54:28;;;;;;;20.40;18.20;;;11.70;99.90;;;;;;5067650;28;20025;-42
2022/03/14 09:56:56;;;;;;;19.65;17.65;;;11.70;99.90;;;;;;5073414;28;20052;-40
2022/03/14 09:59:22;;;;;;;18.83;16.30;;;11.70;99.90;;;;;;5069899;28;20020;-41
2022/03/14 10:01:48;;;;;;;18.88;16.63;;;11.70;99.90;;;;;;5072011;28;20024;-42
2022/03/14 10:04:14;;;;;;;20.25;16.70;;;11.80;99.90;;;;;;5073120;28;20064;-40
2022/03/14 10:06:40;;;;;;;19.52;16.83;;;11.90;99.90;;;;;;5068561;28;20119;-42
2022/03/14 10:09:06;;;;;;;21.02;16.88;;;12.00;99.90;;;;;;5075251;28;20090;-40
2022/03/14 10:11:32;;;;;;;18.83;16.33;;;12.10;99.90;;;;;;5067036;28;20517;-42
2022/03/14 10:13:58;;;;;;;19.40;16.67;;;12.10;99.90;;;;;;5076577;28;20016;-42
2022/03/14 10:16:25;;;;;;;23.23;17.67;;;12.10;99.90;;;;;;5067969;28;20096;-40
2022/03/14 10:19:01;;;;;;;21.48;17.52;;;12.10;99.90;;;;;;5076653;28;20021;-40
2022/03/14 10:21:38;;;;;;;21.25;16.80;;;12.20;99.90;;;;;;5066355;28;20065;-40
2022/03/14 10:24:09;;;;;;;17.65;15.65;;;12.30;99.90;;;;;;5077003;28;20032;-38
2022/03/14 10:26:37;;;;;;;18.90;16.88;;;12.30;99.90;;;;;;5066487;28;20033;-41
2022/03/14 10:29:10;;;;;;;19.88;16.52;;;12.40;99.90;;;;;;5075625;28;20016;-40
2022/03/14 10:31:37;;;;;;;20.00;16.80;;;12.40;99.90;;;;;;5066272;28;20055;-38
2022/03/14 10:34:10;;;;;;;18.52;16.35;;;12.40;99.90;;;;;;5077822;28;20040;-43
2022/03/14 10:36:53;;;;;;;19.00;15.32;;;12.30;99.90;;;;;;5065555;28;20123;-41
2022/03/14 10:39:21;;;;;;;15.75;14.05;;;12.30;99.90;;;;;;5074170;28;20024;-39
2022/03/14 10:42:01;;;;;;;16.02;13.95;;;12.40;99.90;;;;;;5084945;28;20024;-40
2022/03/14 10:44:27;;;;;;;18.40;15.10;;;12.40;99.90;;;;;;5073265;28;20028;-43
2022/03/14 10:46:54;;;;;;;16.65;14.95;;;12.40;99.90;;;;;;5086059;28;20032;-42
2022/03/14 10:49:29;;;;;;;18.63;14.80;;;12.40;99.90;;;;;;5072210;28;20372;-42
2022/03/14 10:52:00;;;;;;;19.20;14.52;;;12.40;99.90;;;;;;5085569;28;20032;-42
2022/03/14 10:54:26;;;;;;;18.33;14.57;;;12.40;99.90;;;;;;5073426;28;20043;-43
2022/03/14 10:57:09;;;;;;;17.15;14.32;;;12.50;99.90;;;;;;5084234;28;20063;-40
2022/03/14 10:59:35;;;;;;;;;;;12.50;99.90;;;;;;5072992;28;20029;-41
2022/03/14 11:02:03;;;;;;;14.95;13.50;;;12.50;99.90;;;;;;5086062;28;19938;-43
2022/03/14 11:04:28;;;;;;;17.38;14.77;;;12.50;99.90;;;;;;5073320;28;20555;-42
2022/03/14 11:07:00;;;;;;;16.02;14.25;;;12.60;99.90;;;;;;5080408;28;20077;-39
2022/03/14 11:09:47;;;;;;;18.97;14.97;;;12.70;99.90;;;;;;5075749;28;20052;-43
2022/03/14 11:12:15;;;;;;;21.10;14.32;;;12.90;99.90;;;;;;5085630;28;20278;-41
2022/03/14 11:14:41;;;;;;;15.57;13.77;;;13.00;99.90;;;;;;5074920;28;20024;-42
2022/03/14 11:17:16;;;;;;;16.08;13.38;;;13.00;99.90;;;;;;5082776;28;20388;-44
2022/03/14 11:19:42;;;;;;;14.85;13.35;;;13.00;99.90;;;;;;5075520;28;20035;-40
2022/03/14 11:22:13;;;;;;;16.30;12.32;;;13.00;99.90;;;;;;5081435;28;20529;-39
2022/03/14 11:24:44;;;;;;;13.82;12.35;;;12.90;99.90;;;;;;5077537;28;20040;-41
2022/03/14 11:27:22;;;;;;;13.10;11.70;;;12.90;99.90;;;;;;5080926;28;20475;-41
2022/03/14 11:29:49;;;;;;;11.98;10.70;;;13.00;99.90;;;;;;5078407;28;20134;-41
2022/03/14 11:32:17;;;;;;;13.10;10.98;;;13.00;99.90;;;;;;5079440;28;20352;-43
2022/03/14 11:34:45;;;;;;;15.85;11.32;;;13.20;99.90;;;;;;5080060;28;20027;-41
2022/03/14 11:37:11;;;;;;;12.45;10.43;;;13.30;99.90;;;;;;5068202;28;20085;-41
2022/03/14 11:39:37;;;;;;;13.90;12.15;;;13.50;99.90;;;;;;5066337;28;20013;-42
2022/03/14 11:42:03;;;;;;;11.95;10.57;;;13.50;99.90;;;;;;5077706;28;20035;-41
2022/03/14 11:44:29;;;;;;;12.25;10.30;;;13.50;99.90;;;;;;5076022;28;20024;-41
2022/03/14 11:46:56;;;;;;;15.82;10.88;;;13.50;99.90;;;;;;5078729;28;20052;-42
2022/03/14 11:49:26;;;;;;;16.10;11.73;;;13.50;99.90;;;;;;5070134;28;20028;-40
2022/03/14 11:52:18;;;;;;;17.67;12.35;;;13.40;99.90;;;;;;5078978;28;20032;-41
2022/03/14 11:55:00;;;;;;;13.90;11.63;;;13.30;99.90;;;;;;5069597;28;20766;-42
2022/03/14 11:57:41;;;;;;;13.53;10.77;;;13.20;99.90;;;;;;5079882;28;20056;-41
2022/03/14 12:00:21;;;;;;;14.57;11.40;;;13.30;99.90;;;;;;5069763;28;20027;-43
2022/03/14 12:02:55;;;;;;;12.98;9.73;;;13.30;99.90;;;;;;5078589;28;20032;-42
2022/03/14 12:05:40;;;;;;;11.40;9.38;;;13.50;99.90;;;;;;5087703;28;20028;-40
2022/03/14 12:08:15;;;;;;;11.48;8.75;;;13.70;99.90;;;;;;5079160;28;20032;-41
2022/03/14 12:10:41;;;;;;;10.93;8.20;;;13.70;99.90;;;;;;5085267;28;20070;-42
2022/03/14 12:13:06;;;;;;;13.32;7.90;;;13.80;99.90;;;;;;5077898;28;20078;-39
2022/03/14 12:15:43;;;;;;;11.85;8.77;;;13.80;99.90;;;;;;5087228;28;20060;-42
2022/03/14 12:18:24;;;;;;;11.48;7.85;;;13.70;99.90;;;;;;5077723;28;20043;-42
2022/03/14 12:20:59;;;;;;;11.43;8.13;;;13.60;99.90;;;;;;5086067;28;20050;-42
2022/03/14 12:23:26;;;;;;;11.82;7.70;;;13.40;99.90;;;;;;5078461;28;20024;-41
2022/03/14 12:25:52;;;;;;;12.45;8.18;;;13.40;99.90;;;;;;5086933;28;20021;-41
2022/03/14 12:28:36;;;;;;;8.70;7.80;;;13.30;99.90;;;;;;5076660;28;20051;-41
2022/03/14 12:31:11;;;;;;;9.82;7.55;;;13.30;99.90;;;;;;5086743;28;20769;-41
2022/03/14 12:33:40;;;;;;;8.32;6.93;;;13.30;99.90;;;;;;5076896;28;20028;-41
2022/03/14 12:36:23;;;;;;;10.75;8.13;;;13.30;99.90;;;;;;5085661;28;20480;-41
2022/03/14 12:39:07;;;;;;;8.10;6.95;;;13.40;99.90;;;;;;5076506;28;20034;-40
2022/03/14 12:41:33;;;;;;;12.20;8.77;;;13.40;99.90;;;;;;5076051;28;20028;-41